sensor_id;sensor_type;location;lat;lon;timestamp;P1;durP1;ratioP1;P2;durP2;ratioP2
18893;SDS011;9579;49.488;8.226;2023-09-19T00:01:45;3.28;;;1.80;;
18893;SDS011;9579;49.488;8.226;2023-09-19T00:04:33;3.08;;;1.80;;
18893;SDS011;9579;49.488;8.226;2023-09-19T00:07:21;1.85;;;1.60;;
18893;SDS011;9579;49.488;8.226;2023-09-19T00:10:08;1.60;;;1.50;;
18893;SDS011;9579;49.488;8.226;2023-09-19T00:12:56;1.95;;;1.70;;
18893;SDS011;9579;49.488;8.226;2023-09-19T00:15:45;1.80;;;1.70;;
18893;SDS011;9579;49.488;8.226;2023-09-19T00:18:34;2.22;;;1.63;;
18893;SDS011;9579;49.488;8.226;2023-09-19T00:21:23;2.75;;;1.80;;
18893;SDS011;9579;49.488;8.226;2023-09-19T00:24:10;2.13;;;1.75;;
18893;SDS011;9579;49.488;8.226;2023-09-19T00:26:57;2.80;;;1.70;;
18893;SDS011;9579;49.488;8.226;2023-09-19T00:29:44;1.95;;;1.65;;
18893;SDS011;9579;49.488;8.226;2023-09-19T00:32:31;1.73;;;1.60;;
18893;SDS011;9579;49.488;8.226;2023-09-19T00:35:19;1.75;;;1.60;;
18893;SDS011;9579;49.488;8.226;2023-09-19T00:38:07;2.00;;;1.80;;
18893;SDS011;9579;49.488;8.226;2023-09-19T00:40:56;2.60;;;2.00;;
18893;SDS011;9579;49.488;8.226;2023-09-19T00:43:45;3.13;;;1.80;;
18893;SDS011;9579;49.488;8.226;2023-09-19T00:46:33;2.47;;;1.95;;
18893;SDS011;9579;49.488;8.226;2023-09-19T00:49:20;2.25;;;1.60;;
18893;SDS011;9579;49.488;8.226;2023-09-19T00:52:07;2.10;;;1.90;;
18893;SDS011;9579;49.488;8.226;2023-09-19T00:54:57;2.47;;;1.77;;
18893;SDS011;9579;49.488;8.226;2023-09-19T00:57:45;2.65;;;1.70;;
18893;SDS011;9579;49.488;8.226;2023-09-19T01:00:35;2.58;;;1.92;;
18893;SDS011;9579;49.488;8.226;2023-09-19T01:03:22;1.90;;;1.70;;
18893;SDS011;9579;49.488;8.226;2023-09-19T01:06:09;2.08;;;1.85;;
18893;SDS011;9579;49.488;8.226;2023-09-19T01:08:57;2.25;;;1.90;;
18893;SDS011;9579;49.488;8.226;2023-09-19T01:11:47;2.90;;;1.95;;
18893;SDS011;9579;49.488;8.226;2023-09-19T01:14:38;2.22;;;2.00;;
18893;SDS011;9579;49.488;8.226;2023-09-19T01:17:34;2.50;;;2.03;;
18893;SDS011;9579;49.488;8.226;2023-09-19T01:20:31;3.08;;;2.17;;
18893;SDS011;9579;49.488;8.226;2023-09-19T01:23:27;2.55;;;1.80;;
18893;SDS011;9579;49.488;8.226;2023-09-19T01:26:37;2.45;;;2.20;;
18893;SDS011;9579;49.488;8.226;2023-09-19T01:29:42;2.30;;;2.10;;
18893;SDS011;9579;49.488;8.226;2023-09-19T01:32:33;2.72;;;2.38;;
18893;SDS011;9579;49.488;8.226;2023-09-19T01:35:20;2.45;;;2.03;;
18893;SDS011;9579;49.488;8.226;2023-09-19T01:38:07;3.22;;;2.40;;
18893;SDS011;9579;49.488;8.226;2023-09-19T01:40:57;2.20;;;2.00;;
18893;SDS011;9579;49.488;8.226;2023-09-19T01:43:52;4.10;;;2.25;;
18893;SDS011;9579;49.488;8.226;2023-09-19T01:46:40;2.78;;;2.13;;
18893;SDS011;9579;49.488;8.226;2023-09-19T01:49:32;2.03;;;1.90;;
18893;SDS011;9579;49.488;8.226;2023-09-19T01:52:24;2.20;;;2.00;;
18893;SDS011;9579;49.488;8.226;2023-09-19T01:55:15;2.45;;;2.25;;
18893;SDS011;9579;49.488;8.226;2023-09-19T01:58:04;2.40;;;2.00;;
18893;SDS011;9579;49.488;8.226;2023-09-19T02:00:54;2.35;;;1.90;;
18893;SDS011;9579;49.488;8.226;2023-09-19T02:03:46;2.33;;;2.15;;
18893;SDS011;9579;49.488;8.226;2023-09-19T02:06:36;2.03;;;1.92;;
18893;SDS011;9579;49.488;8.226;2023-09-19T02:09:26;2.20;;;2.00;;
18893;SDS011;9579;49.488;8.226;2023-09-19T02:12:13;2.30;;;2.10;;
18893;SDS011;9579;49.488;8.226;2023-09-19T02:15:00;3.85;;;2.10;;
18893;SDS011;9579;49.488;8.226;2023-09-19T02:17:48;2.45;;;1.85;;
18893;SDS011;9579;49.488;8.226;2023-09-19T02:20:35;2.45;;;2.20;;
18893;SDS011;9579;49.488;8.226;2023-09-19T02:23:23;2.90;;;2.45;;
18893;SDS011;9579;49.488;8.226;2023-09-19T02:26:11;3.20;;;2.30;;
18893;SDS011;9579;49.488;8.226;2023-09-19T02:28:59;3.30;;;2.45;;
18893;SDS011;9579;49.488;8.226;2023-09-19T02:31:46;2.95;;;2.40;;
18893;SDS011;9579;49.488;8.226;2023-09-19T02:34:33;2.60;;;2.40;;
18893;SDS011;9579;49.488;8.226;2023-09-19T02:37:21;2.30;;;2.10;;
18893;SDS011;9579;49.488;8.226;2023-09-19T02:40:10;2.70;;;2.50;;
18893;SDS011;9579;49.488;8.226;2023-09-19T02:43:04;2.97;;;2.78;;
18893;SDS011;9579;49.488;8.226;2023-09-19T02:45:52;3.22;;;2.70;;
18893;SDS011;9579;49.488;8.226;2023-09-19T02:48:39;2.78;;;2.58;;
18893;SDS011;9579;49.488;8.226;2023-09-19T02:51:27;2.60;;;2.40;;
18893;SDS011;9579;49.488;8.226;2023-09-19T02:54:14;3.78;;;3.15;;
18893;SDS011;9579;49.488;8.226;2023-09-19T02:57:04;3.10;;;2.90;;
18893;SDS011;9579;49.488;8.226;2023-09-19T02:59:52;3.08;;;2.75;;
18893;SDS011;9579;49.488;8.226;2023-09-19T03:02:40;3.55;;;2.88;;
18893;SDS011;9579;49.488;8.226;2023-09-19T03:05:27;3.65;;;3.25;;
18893;SDS011;9579;49.488;8.226;2023-09-19T03:08:16;3.60;;;3.30;;
18893;SDS011;9579;49.488;8.226;2023-09-19T03:11:03;4.43;;;3.50;;
18893;SDS011;9579;49.488;8.226;2023-09-19T03:13:53;3.45;;;3.10;;
18893;SDS011;9579;49.488;8.226;2023-09-19T03:16:40;4.65;;;3.30;;
18893;SDS011;9579;49.488;8.226;2023-09-19T03:19:29;3.65;;;3.33;;
18893;SDS011;9579;49.488;8.226;2023-09-19T03:22:18;3.60;;;3.40;;
18893;SDS011;9579;49.488;8.226;2023-09-19T03:25:06;3.70;;;3.40;;
18893;SDS011;9579;49.488;8.226;2023-09-19T03:27:55;4.10;;;3.60;;
18893;SDS011;9579;49.488;8.226;2023-09-19T03:30:45;3.78;;;3.47;;
18893;SDS011;9579;49.488;8.226;2023-09-19T03:33:32;3.70;;;3.40;;
18893;SDS011;9579;49.488;8.226;2023-09-19T03:36:19;3.80;;;3.50;;
18893;SDS011;9579;49.488;8.226;2023-09-19T03:39:06;3.30;;;3.00;;
18893;SDS011;9579;49.488;8.226;2023-09-19T03:41:53;3.80;;;3.35;;
18893;SDS011;9579;49.488;8.226;2023-09-19T03:44:40;3.75;;;3.25;;
18893;SDS011;9579;49.488;8.226;2023-09-19T03:47:28;3.63;;;3.33;;
18893;SDS011;9579;49.488;8.226;2023-09-19T03:50:15;3.67;;;3.15;;
18893;SDS011;9579;49.488;8.226;2023-09-19T03:53:03;3.50;;;3.20;;
18893;SDS011;9579;49.488;8.226;2023-09-19T03:55:50;3.95;;;3.30;;
18893;SDS011;9579;49.488;8.226;2023-09-19T03:58:37;3.97;;;3.10;;
18893;SDS011;9579;49.488;8.226;2023-09-19T04:01:24;3.80;;;3.20;;
18893;SDS011;9579;49.488;8.226;2023-09-19T04:04:14;3.70;;;3.40;;
18893;SDS011;9579;49.488;8.226;2023-09-19T04:07:04;4.22;;;3.00;;
18893;SDS011;9579;49.488;8.226;2023-09-19T04:09:51;3.28;;;2.97;;
18893;SDS011;9579;49.488;8.226;2023-09-19T04:12:38;3.53;;;3.10;;
18893;SDS011;9579;49.488;8.226;2023-09-19T04:15:25;3.67;;;3.17;;
18893;SDS011;9579;49.488;8.226;2023-09-19T04:18:12;4.00;;;3.20;;
18893;SDS011;9579;49.488;8.226;2023-09-19T04:21:01;4.10;;;3.15;;
18893;SDS011;9579;49.488;8.226;2023-09-19T04:23:49;4.15;;;3.00;;
18893;SDS011;9579;49.488;8.226;2023-09-19T04:26:36;3.47;;;3.17;;
18893;SDS011;9579;49.488;8.226;2023-09-19T04:29:23;3.38;;;2.80;;
18893;SDS011;9579;49.488;8.226;2023-09-19T04:32:11;4.55;;;2.90;;
18893;SDS011;9579;49.488;8.226;2023-09-19T04:34:58;2.97;;;2.50;;
18893;SDS011;9579;49.488;8.226;2023-09-19T04:37:50;4.35;;;3.05;;
18893;SDS011;9579;49.488;8.226;2023-09-19T04:40:38;3.67;;;2.80;;
18893;SDS011;9579;49.488;8.226;2023-09-19T04:43:25;3.88;;;3.03;;
18893;SDS011;9579;49.488;8.226;2023-09-19T04:46:14;4.90;;;2.80;;
18893;SDS011;9579;49.488;8.226;2023-09-19T04:49:01;4.28;;;2.75;;
18893;SDS011;9579;49.488;8.226;2023-09-19T04:51:48;4.18;;;2.70;;
18893;SDS011;9579;49.488;8.226;2023-09-19T04:54:37;3.70;;;2.80;;
18893;SDS011;9579;49.488;8.226;2023-09-19T04:57:25;3.30;;;2.47;;
18893;SDS011;9579;49.488;8.226;2023-09-19T05:00:13;4.20;;;2.70;;
18893;SDS011;9579;49.488;8.226;2023-09-19T05:03:02;3.40;;;2.67;;
18893;SDS011;9579;49.488;8.226;2023-09-19T05:05:51;4.03;;;2.58;;
18893;SDS011;9579;49.488;8.226;2023-09-19T05:08:38;3.95;;;2.80;;
18893;SDS011;9579;49.488;8.226;2023-09-19T05:11:26;4.47;;;2.47;;
18893;SDS011;9579;49.488;8.226;2023-09-19T05:14:15;4.40;;;2.70;;
18893;SDS011;9579;49.488;8.226;2023-09-19T05:17:02;3.55;;;2.70;;
18893;SDS011;9579;49.488;8.226;2023-09-19T05:19:50;3.63;;;2.85;;
18893;SDS011;9579;49.488;8.226;2023-09-19T05:22:38;2.85;;;2.58;;
18893;SDS011;9579;49.488;8.226;2023-09-19T05:25:26;3.13;;;2.55;;
18893;SDS011;9579;49.488;8.226;2023-09-19T05:28:16;3.08;;;2.50;;
18893;SDS011;9579;49.488;8.226;2023-09-19T05:31:03;3.08;;;2.53;;
18893;SDS011;9579;49.488;8.226;2023-09-19T05:33:50;3.33;;;2.65;;
18893;SDS011;9579;49.488;8.226;2023-09-19T05:36:40;4.20;;;2.55;;
18893;SDS011;9579;49.488;8.226;2023-09-19T05:39:27;3.70;;;2.80;;
18893;SDS011;9579;49.488;8.226;2023-09-19T05:42:14;4.38;;;2.63;;
18893;SDS011;9579;49.488;8.226;2023-09-19T05:45:02;3.53;;;2.58;;
18893;SDS011;9579;49.488;8.226;2023-09-19T05:47:51;2.85;;;2.40;;
18893;SDS011;9579;49.488;8.226;2023-09-19T05:50:41;2.58;;;2.38;;
18893;SDS011;9579;49.488;8.226;2023-09-19T05:53:28;3.08;;;2.45;;
18893;SDS011;9579;49.488;8.226;2023-09-19T05:56:15;2.97;;;2.33;;
18893;SDS011;9579;49.488;8.226;2023-09-19T05:59:04;3.75;;;2.28;;
18893;SDS011;9579;49.488;8.226;2023-09-19T06:01:52;4.32;;;2.65;;
18893;SDS011;9579;49.488;8.226;2023-09-19T06:04:40;5.60;;;2.47;;
18893;SDS011;9579;49.488;8.226;2023-09-19T06:07:27;5.05;;;2.53;;
18893;SDS011;9579;49.488;8.226;2023-09-19T06:10:21;4.75;;;2.90;;
18893;SDS011;9579;49.488;8.226;2023-09-19T06:13:08;3.67;;;2.40;;
18893;SDS011;9579;49.488;8.226;2023-09-19T06:15:56;2.97;;;2.40;;
18893;SDS011;9579;49.488;8.226;2023-09-19T06:18:45;4.03;;;2.50;;
18893;SDS011;9579;49.488;8.226;2023-09-19T06:21:32;3.67;;;2.65;;
18893;SDS011;9579;49.488;8.226;2023-09-19T06:24:19;3.63;;;2.80;;
18893;SDS011;9579;49.488;8.226;2023-09-19T06:27:07;5.18;;;2.42;;
18893;SDS011;9579;49.488;8.226;2023-09-19T06:29:54;4.53;;;2.63;;
18893;SDS011;9579;49.488;8.226;2023-09-19T06:32:41;3.28;;;2.58;;
18893;SDS011;9579;49.488;8.226;2023-09-19T06:35:31;2.80;;;2.22;;
18893;SDS011;9579;49.488;8.226;2023-09-19T06:38:19;4.00;;;2.60;;
18893;SDS011;9579;49.488;8.226;2023-09-19T06:41:06;3.78;;;2.50;;
18893;SDS011;9579;49.488;8.226;2023-09-19T06:43:53;2.70;;;2.45;;
18893;SDS011;9579;49.488;8.226;2023-09-19T06:46:40;3.10;;;2.65;;
18893;SDS011;9579;49.488;8.226;2023-09-19T06:49:29;3.10;;;2.50;;
18893;SDS011;9579;49.488;8.226;2023-09-19T06:52:17;3.47;;;2.35;;
18893;SDS011;9579;49.488;8.226;2023-09-19T06:55:07;4.10;;;2.78;;
18893;SDS011;9579;49.488;8.226;2023-09-19T06:57:57;4.10;;;2.53;;
18893;SDS011;9579;49.488;8.226;2023-09-19T07:00:44;3.92;;;2.20;;
18893;SDS011;9579;49.488;8.226;2023-09-19T07:03:31;3.20;;;2.30;;
18893;SDS011;9579;49.488;8.226;2023-09-19T07:06:19;3.80;;;2.63;;
18893;SDS011;9579;49.488;8.226;2023-09-19T07:09:07;3.05;;;2.75;;
18893;SDS011;9579;49.488;8.226;2023-09-19T07:11:55;3.42;;;2.70;;
18893;SDS011;9579;49.488;8.226;2023-09-19T07:14:42;3.30;;;3.00;;
18893;SDS011;9579;49.488;8.226;2023-09-19T07:17:29;4.35;;;3.50;;
18893;SDS011;9579;49.488;8.226;2023-09-19T07:20:18;3.33;;;3.03;;
18893;SDS011;9579;49.488;8.226;2023-09-19T07:23:05;3.63;;;3.25;;
18893;SDS011;9579;49.488;8.226;2023-09-19T07:25:57;4.97;;;3.53;;
18893;SDS011;9579;49.488;8.226;2023-09-19T07:28:45;4.53;;;3.28;;
18893;SDS011;9579;49.488;8.226;2023-09-19T07:31:32;3.78;;;3.47;;
18893;SDS011;9579;49.488;8.226;2023-09-19T07:34:19;3.45;;;3.15;;
18893;SDS011;9579;49.488;8.226;2023-09-19T07:37:08;3.85;;;3.50;;
18893;SDS011;9579;49.488;8.226;2023-09-19T07:39:55;5.57;;;3.80;;
18893;SDS011;9579;49.488;8.226;2023-09-19T07:42:44;3.80;;;3.40;;
18893;SDS011;9579;49.488;8.226;2023-09-19T07:45:32;3.90;;;3.30;;
18893;SDS011;9579;49.488;8.226;2023-09-19T07:48:19;3.33;;;3.03;;
18893;SDS011;9579;49.488;8.226;2023-09-19T07:51:07;4.78;;;3.10;;
18893;SDS011;9579;49.488;8.226;2023-09-19T07:53:54;3.75;;;3.15;;
18893;SDS011;9579;49.488;8.226;2023-09-19T07:56:41;3.95;;;3.50;;
18893;SDS011;9579;49.488;8.226;2023-09-19T07:59:30;3.72;;;3.40;;
18893;SDS011;9579;49.488;8.226;2023-09-19T08:02:17;4.63;;;3.65;;
18893;SDS011;9579;49.488;8.226;2023-09-19T08:05:04;3.90;;;3.60;;
18893;SDS011;9579;49.488;8.226;2023-09-19T08:07:55;3.45;;;3.00;;
18893;SDS011;9579;49.488;8.226;2023-09-19T08:10:43;6.88;;;3.53;;
18893;SDS011;9579;49.488;8.226;2023-09-19T08:13:31;4.00;;;3.60;;
18893;SDS011;9579;49.488;8.226;2023-09-19T08:16:19;4.13;;;3.67;;
18893;SDS011;9579;49.488;8.226;2023-09-19T08:19:07;4.60;;;3.38;;
18893;SDS011;9579;49.488;8.226;2023-09-19T08:21:55;3.47;;;3.08;;
18893;SDS011;9579;49.488;8.226;2023-09-19T08:24:43;4.72;;;3.60;;
18893;SDS011;9579;49.488;8.226;2023-09-19T08:27:31;4.80;;;3.33;;
18893;SDS011;9579;49.488;8.226;2023-09-19T08:30:22;3.38;;;3.08;;
18893;SDS011;9579;49.488;8.226;2023-09-19T08:33:11;4.47;;;3.40;;
18893;SDS011;9579;49.488;8.226;2023-09-19T08:36:00;3.92;;;3.33;;
18893;SDS011;9579;49.488;8.226;2023-09-19T08:38:49;4.25;;;3.40;;
18893;SDS011;9579;49.488;8.226;2023-09-19T08:41:36;4.50;;;3.22;;
18893;SDS011;9579;49.488;8.226;2023-09-19T08:44:23;4.90;;;3.45;;
18893;SDS011;9579;49.488;8.226;2023-09-19T08:47:11;6.32;;;3.20;;
18893;SDS011;9579;49.488;8.226;2023-09-19T08:50:04;3.95;;;2.95;;
18893;SDS011;9579;49.488;8.226;2023-09-19T08:53:01;4.78;;;3.35;;
18893;SDS011;9579;49.488;8.226;2023-09-19T08:55:53;4.60;;;3.28;;
18893;SDS011;9579;49.488;8.226;2023-09-19T08:58:44;3.88;;;3.03;;
18893;SDS011;9579;49.488;8.226;2023-09-19T09:01:34;4.57;;;2.85;;
18893;SDS011;9579;49.488;8.226;2023-09-19T09:04:22;4.32;;;2.80;;
18893;SDS011;9579;49.488;8.226;2023-09-19T09:07:13;6.25;;;3.08;;
18893;SDS011;9579;49.488;8.226;2023-09-19T09:10:02;4.20;;;3.00;;
18893;SDS011;9579;49.488;8.226;2023-09-19T09:12:50;4.55;;;2.70;;
18893;SDS011;9579;49.488;8.226;2023-09-19T09:15:38;4.82;;;2.58;;
18893;SDS011;9579;49.488;8.226;2023-09-19T09:18:29;4.88;;;2.42;;
18893;SDS011;9579;49.488;8.226;2023-09-19T09:21:16;5.53;;;2.70;;
18893;SDS011;9579;49.488;8.226;2023-09-19T09:27:15;5.93;;;2.83;;
18893;SDS011;9579;49.488;8.226;2023-09-19T09:30:03;4.05;;;2.70;;
18893;SDS011;9579;49.488;8.226;2023-09-19T09:32:56;4.85;;;2.70;;
18893;SDS011;9579;49.488;8.226;2023-09-19T09:35:56;4.47;;;2.60;;
18893;SDS011;9579;49.488;8.226;2023-09-19T09:38:46;4.70;;;2.60;;
18893;SDS011;9579;49.488;8.226;2023-09-19T09:41:36;4.90;;;2.83;;
18893;SDS011;9579;49.488;8.226;2023-09-19T09:44:25;4.80;;;2.90;;
18893;SDS011;9579;49.488;8.226;2023-09-19T09:47:18;4.53;;;2.75;;
18893;SDS011;9579;49.488;8.226;2023-09-19T09:50:35;5.30;;;2.67;;
18893;SDS011;9579;49.488;8.226;2023-09-19T09:53:29;4.30;;;2.55;;
18893;SDS011;9579;49.488;8.226;2023-09-19T09:56:17;4.03;;;2.70;;
18893;SDS011;9579;49.488;8.226;2023-09-19T09:59:06;4.85;;;2.80;;
18893;SDS011;9579;49.488;8.226;2023-09-19T10:01:53;3.67;;;2.22;;
18893;SDS011;9579;49.488;8.226;2023-09-19T10:04:41;3.38;;;2.20;;
18893;SDS011;9579;49.488;8.226;2023-09-19T10:07:37;5.88;;;2.42;;
18893;SDS011;9579;49.488;8.226;2023-09-19T10:10:31;2.88;;;2.08;;
18893;SDS011;9579;49.488;8.226;2023-09-19T10:13:29;5.65;;;3.30;;
18893;SDS011;9579;49.488;8.226;2023-09-19T10:16:19;5.35;;;2.80;;
18893;SDS011;9579;49.488;8.226;2023-09-19T10:19:08;3.40;;;2.20;;
18893;SDS011;9579;49.488;8.226;2023-09-19T10:21:56;3.90;;;2.30;;
18893;SDS011;9579;49.488;8.226;2023-09-19T10:24:46;4.95;;;2.60;;
18893;SDS011;9579;49.488;8.226;2023-09-19T10:27:33;3.28;;;2.10;;
18893;SDS011;9579;49.488;8.226;2023-09-19T10:30:23;3.22;;;2.22;;
18893;SDS011;9579;49.488;8.226;2023-09-19T10:33:12;3.72;;;2.35;;
18893;SDS011;9579;49.488;8.226;2023-09-19T10:36:00;4.10;;;2.53;;
18893;SDS011;9579;49.488;8.226;2023-09-19T10:38:49;2.95;;;1.95;;
18893;SDS011;9579;49.488;8.226;2023-09-19T10:41:40;3.25;;;2.00;;
18893;SDS011;9579;49.488;8.226;2023-09-19T10:44:30;3.97;;;2.10;;
18893;SDS011;9579;49.488;8.226;2023-09-19T10:47:19;4.18;;;2.20;;
18893;SDS011;9579;49.488;8.226;2023-09-19T10:50:12;4.30;;;2.40;;
18893;SDS011;9579;49.488;8.226;2023-09-19T10:53:07;4.03;;;2.15;;
18893;SDS011;9579;49.488;8.226;2023-09-19T10:55:57;2.63;;;2.05;;
18893;SDS011;9579;49.488;8.226;2023-09-19T10:59:05;2.33;;;2.10;;
18893;SDS011;9579;49.488;8.226;2023-09-19T11:01:55;3.20;;;2.10;;
18893;SDS011;9579;49.488;8.226;2023-09-19T11:04:43;2.53;;;1.98;;
18893;SDS011;9579;49.488;8.226;2023-09-19T11:07:34;2.30;;;1.83;;
18893;SDS011;9579;49.488;8.226;2023-09-19T11:10:45;3.33;;;2.20;;
18893;SDS011;9579;49.488;8.226;2023-09-19T11:13:33;3.55;;;1.88;;
18893;SDS011;9579;49.488;8.226;2023-09-19T11:16:23;3.35;;;2.10;;
18893;SDS011;9579;49.488;8.226;2023-09-19T11:19:10;4.03;;;1.88;;
18893;SDS011;9579;49.488;8.226;2023-09-19T11:21:57;3.15;;;2.00;;
18893;SDS011;9579;49.488;8.226;2023-09-19T11:24:45;2.58;;;1.75;;
18893;SDS011;9579;49.488;8.226;2023-09-19T11:27:32;3.67;;;1.90;;
18893;SDS011;9579;49.488;8.226;2023-09-19T11:30:26;2.50;;;1.92;;
18893;SDS011;9579;49.488;8.226;2023-09-19T11:33:16;4.75;;;2.47;;
18893;SDS011;9579;49.488;8.226;2023-09-19T11:36:06;3.25;;;2.05;;
18893;SDS011;9579;49.488;8.226;2023-09-19T11:38:58;3.03;;;2.08;;
18893;SDS011;9579;49.488;8.226;2023-09-19T11:41:54;2.33;;;1.83;;
18893;SDS011;9579;49.488;8.226;2023-09-19T11:44:42;2.60;;;2.05;;
18893;SDS011;9579;49.488;8.226;2023-09-19T11:47:29;2.53;;;1.75;;
18893;SDS011;9579;49.488;8.226;2023-09-19T11:50:18;2.88;;;2.10;;
18893;SDS011;9579;49.488;8.226;2023-09-19T11:53:06;3.90;;;1.90;;
18893;SDS011;9579;49.488;8.226;2023-09-19T11:55:56;3.70;;;1.85;;
18893;SDS011;9579;49.488;8.226;2023-09-19T11:58:47;2.40;;;1.88;;
18893;SDS011;9579;49.488;8.226;2023-09-19T12:01:49;3.03;;;1.80;;
18893;SDS011;9579;49.488;8.226;2023-09-19T12:04:43;3.92;;;2.00;;
18893;SDS011;9579;49.488;8.226;2023-09-19T12:07:41;2.60;;;1.90;;
18893;SDS011;9579;49.488;8.226;2023-09-19T12:10:29;2.88;;;2.03;;
18893;SDS011;9579;49.488;8.226;2023-09-19T12:13:16;1.85;;;1.65;;
18893;SDS011;9579;49.488;8.226;2023-09-19T12:16:09;2.85;;;2.13;;
18893;SDS011;9579;49.488;8.226;2023-09-19T12:19:00;2.88;;;1.80;;
18893;SDS011;9579;49.488;8.226;2023-09-19T12:22:05;2.58;;;1.80;;
18893;SDS011;9579;49.488;8.226;2023-09-19T12:24:54;2.95;;;1.90;;
18893;SDS011;9579;49.488;8.226;2023-09-19T12:27:53;4.45;;;2.00;;
18893;SDS011;9579;49.488;8.226;2023-09-19T12:30:41;2.90;;;1.80;;
18893;SDS011;9579;49.488;8.226;2023-09-19T12:33:30;2.00;;;1.80;;
18893;SDS011;9579;49.488;8.226;2023-09-19T12:36:19;2.95;;;1.70;;
18893;SDS011;9579;49.488;8.226;2023-09-19T12:39:10;2.78;;;1.95;;
18893;SDS011;9579;49.488;8.226;2023-09-19T12:41:59;1.90;;;1.70;;
18893;SDS011;9579;49.488;8.226;2023-09-19T12:44:50;1.77;;;1.67;;
18893;SDS011;9579;49.488;8.226;2023-09-19T12:47:40;3.50;;;1.90;;
18893;SDS011;9579;49.488;8.226;2023-09-19T12:51:04;3.55;;;2.15;;
18893;SDS011;9579;49.488;8.226;2023-09-19T12:53:57;4.10;;;1.70;;
18893;SDS011;9579;49.488;8.226;2023-09-19T12:56:44;2.58;;;1.80;;
18893;SDS011;9579;49.488;8.226;2023-09-19T12:59:34;4.05;;;1.65;;
18893;SDS011;9579;49.488;8.226;2023-09-19T13:02:21;1.88;;;1.67;;
18893;SDS011;9579;49.488;8.226;2023-09-19T13:05:11;2.75;;;1.73;;
18893;SDS011;9579;49.488;8.226;2023-09-19T13:08:04;3.58;;;1.70;;
18893;SDS011;9579;49.488;8.226;2023-09-19T13:11:06;1.83;;;1.63;;
18893;SDS011;9579;49.488;8.226;2023-09-19T13:17:02;2.35;;;1.95;;
18893;SDS011;9579;49.488;8.226;2023-09-19T13:19:51;3.28;;;1.83;;
18893;SDS011;9579;49.488;8.226;2023-09-19T13:22:40;2.17;;;1.88;;
18893;SDS011;9579;49.488;8.226;2023-09-19T13:25:31;2.08;;;1.60;;
18893;SDS011;9579;49.488;8.226;2023-09-19T13:28:18;3.42;;;2.17;;
18893;SDS011;9579;49.488;8.226;2023-09-19T13:31:05;2.95;;;2.10;;
18893;SDS011;9579;49.488;8.226;2023-09-19T13:33:52;2.78;;;1.85;;
18893;SDS011;9579;49.488;8.226;2023-09-19T13:36:39;2.47;;;1.70;;
18893;SDS011;9579;49.488;8.226;2023-09-19T13:39:27;2.00;;;1.58;;
18893;SDS011;9579;49.488;8.226;2023-09-19T13:42:15;2.85;;;1.90;;
18893;SDS011;9579;49.488;8.226;2023-09-19T13:45:05;1.80;;;1.70;;
18893;SDS011;9579;49.488;8.226;2023-09-19T13:47:57;2.65;;;1.90;;
18893;SDS011;9579;49.488;8.226;2023-09-19T13:50:44;2.47;;;1.80;;
18893;SDS011;9579;49.488;8.226;2023-09-19T13:53:31;1.90;;;1.70;;
18893;SDS011;9579;49.488;8.226;2023-09-19T13:56:19;2.80;;;1.75;;
18893;SDS011;9579;49.488;8.226;2023-09-19T13:59:08;3.10;;;1.80;;
18893;SDS011;9579;49.488;8.226;2023-09-19T14:01:55;2.75;;;1.98;;
18893;SDS011;9579;49.488;8.226;2023-09-19T14:04:42;2.42;;;1.60;;
18893;SDS011;9579;49.488;8.226;2023-09-19T14:07:29;1.70;;;1.50;;
18893;SDS011;9579;49.488;8.226;2023-09-19T14:10:16;2.33;;;1.67;;
18893;SDS011;9579;49.488;8.226;2023-09-19T14:13:03;2.65;;;1.60;;
18893;SDS011;9579;49.488;8.226;2023-09-19T14:15:52;1.60;;;1.50;;
18893;SDS011;9579;49.488;8.226;2023-09-19T14:18:39;1.77;;;1.42;;
18893;SDS011;9579;49.488;8.226;2023-09-19T14:21:27;2.30;;;1.70;;
18893;SDS011;9579;49.488;8.226;2023-09-19T14:24:16;2.20;;;1.65;;
18893;SDS011;9579;49.488;8.226;2023-09-19T14:27:04;2.03;;;1.42;;
18893;SDS011;9579;49.488;8.226;2023-09-19T14:29:52;2.53;;;1.77;;
18893;SDS011;9579;49.488;8.226;2023-09-19T14:32:40;1.83;;;1.60;;
18893;SDS011;9579;49.488;8.226;2023-09-19T14:35:27;1.80;;;1.70;;
18893;SDS011;9579;49.488;8.226;2023-09-19T14:38:14;1.73;;;1.60;;
18893;SDS011;9579;49.488;8.226;2023-09-19T14:41:02;2.80;;;1.45;;
18893;SDS011;9579;49.488;8.226;2023-09-19T14:43:50;2.17;;;1.40;;
18893;SDS011;9579;49.488;8.226;2023-09-19T14:46:37;1.52;;;1.40;;
18893;SDS011;9579;49.488;8.226;2023-09-19T14:49:26;1.50;;;1.38;;
18893;SDS011;9579;49.488;8.226;2023-09-19T14:52:13;2.30;;;1.50;;
18893;SDS011;9579;49.488;8.226;2023-09-19T14:55:01;1.60;;;1.50;;
18893;SDS011;9579;49.488;8.226;2023-09-19T14:57:50;2.22;;;1.70;;
18893;SDS011;9579;49.488;8.226;2023-09-19T15:00:38;2.25;;;1.67;;
18893;SDS011;9579;49.488;8.226;2023-09-19T15:03:25;2.33;;;1.75;;
18893;SDS011;9579;49.488;8.226;2023-09-19T15:06:13;1.85;;;1.50;;
18893;SDS011;9579;49.488;8.226;2023-09-19T15:09:02;2.10;;;1.42;;
18893;SDS011;9579;49.488;8.226;2023-09-19T15:11:50;2.22;;;1.40;;
18893;SDS011;9579;49.488;8.226;2023-09-19T15:14:37;1.98;;;1.50;;
18893;SDS011;9579;49.488;8.226;2023-09-19T15:17:24;2.33;;;1.50;;
18893;SDS011;9579;49.488;8.226;2023-09-19T15:20:11;2.08;;;1.75;;
18893;SDS011;9579;49.488;8.226;2023-09-19T15:23:01;1.58;;;1.40;;
18893;SDS011;9579;49.488;8.226;2023-09-19T15:25:48;2.08;;;1.75;;
18893;SDS011;9579;49.488;8.226;2023-09-19T15:28:36;1.75;;;1.65;;
18893;SDS011;9579;49.488;8.226;2023-09-19T15:31:23;1.65;;;1.42;;
18893;SDS011;9579;49.488;8.226;2023-09-19T15:34:11;3.03;;;1.65;;
18893;SDS011;9579;49.488;8.226;2023-09-19T15:37:01;1.60;;;1.33;;
18893;SDS011;9579;49.488;8.226;2023-09-19T15:39:49;2.22;;;1.60;;
18893;SDS011;9579;49.488;8.226;2023-09-19T15:42:37;1.77;;;1.50;;
18893;SDS011;9579;49.488;8.226;2023-09-19T15:45:24;1.45;;;1.35;;
18893;SDS011;9579;49.488;8.226;2023-09-19T15:48:11;1.98;;;1.67;;
18893;SDS011;9579;49.488;8.226;2023-09-19T15:51:02;1.45;;;1.35;;
18893;SDS011;9579;49.488;8.226;2023-09-19T15:53:51;1.70;;;1.60;;
18893;SDS011;9579;49.488;8.226;2023-09-19T15:56:42;1.95;;;1.50;;
18893;SDS011;9579;49.488;8.226;2023-09-19T15:59:29;2.03;;;1.50;;
18893;SDS011;9579;49.488;8.226;2023-09-19T16:02:17;2.10;;;1.63;;
18893;SDS011;9579;49.488;8.226;2023-09-19T16:05:04;1.33;;;1.23;;
18893;SDS011;9579;49.488;8.226;2023-09-19T16:07:52;1.77;;;1.40;;
18893;SDS011;9579;49.488;8.226;2023-09-19T16:10:39;2.90;;;1.70;;
18893;SDS011;9579;49.488;8.226;2023-09-19T16:13:27;1.55;;;1.40;;
18893;SDS011;9579;49.488;8.226;2023-09-19T16:16:15;1.98;;;1.40;;
18893;SDS011;9579;49.488;8.226;2023-09-19T16:19:05;1.90;;;1.75;;
18893;SDS011;9579;49.488;8.226;2023-09-19T16:21:55;2.60;;;1.50;;
18893;SDS011;9579;49.488;8.226;2023-09-19T16:24:42;1.67;;;1.58;;
18893;SDS011;9579;49.488;8.226;2023-09-19T16:27:30;1.50;;;1.40;;
18893;SDS011;9579;49.488;8.226;2023-09-19T16:30:18;1.77;;;1.52;;
18893;SDS011;9579;49.488;8.226;2023-09-19T16:33:05;1.65;;;1.55;;
18893;SDS011;9579;49.488;8.226;2023-09-19T16:35:52;2.45;;;1.58;;
18893;SDS011;9579;49.488;8.226;2023-09-19T16:38:41;2.35;;;1.67;;
18893;SDS011;9579;49.488;8.226;2023-09-19T16:41:29;1.90;;;1.42;;
18893;SDS011;9579;49.488;8.226;2023-09-19T16:44:16;2.28;;;1.60;;
18893;SDS011;9579;49.488;8.226;2023-09-19T16:47:07;1.60;;;1.50;;
18893;SDS011;9579;49.488;8.226;2023-09-19T16:49:54;1.52;;;1.42;;
18893;SDS011;9579;49.488;8.226;2023-09-19T16:52:41;1.60;;;1.50;;
18893;SDS011;9579;49.488;8.226;2023-09-19T16:55:28;1.40;;;1.30;;
18893;SDS011;9579;49.488;8.226;2023-09-19T16:58:16;1.60;;;1.50;;
18893;SDS011;9579;49.488;8.226;2023-09-19T17:01:03;3.55;;;1.70;;
18893;SDS011;9579;49.488;8.226;2023-09-19T17:03:55;1.73;;;1.60;;
18893;SDS011;9579;49.488;8.226;2023-09-19T17:06:42;2.20;;;1.60;;
18893;SDS011;9579;49.488;8.226;2023-09-19T17:09:31;1.65;;;1.52;;
18893;SDS011;9579;49.488;8.226;2023-09-19T17:12:19;1.60;;;1.50;;
18893;SDS011;9579;49.488;8.226;2023-09-19T17:15:06;2.05;;;1.60;;
18893;SDS011;9579;49.488;8.226;2023-09-19T17:17:54;2.15;;;1.60;;
18893;SDS011;9579;49.488;8.226;2023-09-19T17:20:42;2.00;;;1.50;;